Terminal Aerodrome Forecast
Issued by NWS Wilmington, NC

Home | Current Version | Previous Version | Text Only | Print | Product List | Glossary On
Versions: 1 2 3 4 5 6 7 8 9 10 11 12 13
219
FTUS42 KILM 231720
TAFLBT
TAF
KLBT 231720Z 2318/2418 12010KT P6SM SCT040
     FM240000 09003KT P6SM FEW250
     FM240900 00000KT 4SM BR OVC100
      TEMPO 2409/2412 1/2SM FG OVC025
     FM241400 11003KT P6SM SCT025=

USA.gov is the U.S. government's official web portal to all federal, state and local government web resources and services.